Time;durP1;ratioP1;P1;durP2;ratioP2;P2;SDS_P1;SDS_P2;PMS_P1;PMS_P2;Temp;Humidity;BMP_temperature;BMP_pressure;BME280_temperature;BME280_humidity;BME280_pressure;Samples;Min_cycle;Max_cycle;Signal;HPM_P1;HPM_P2
2021/12/31 00:02:06;;;;;;;15.40;6.83;;;7.40;99.90;;;;;;5071580;28;20202;-73
2021/12/31 00:04:32;;;;;;;17.13;5.90;;;7.40;99.90;;;;;;5070713;28;20205;-73
2021/12/31 00:07:00;;;;;;;14.10;6.47;;;7.40;99.90;;;;;;5071190;28;20226;-73
2021/12/31 00:09:27;;;;;;;13.20;7.23;;;7.80;99.90;;;;;;5070834;28;20635;-72
2021/12/31 00:11:54;;;;;;;21.67;6.93;;;7.70;99.90;;;;;;5071134;28;20256;-72
2021/12/31 00:14:22;;;;;;;10.77;7.80;;;7.70;99.90;;;;;;5071088;28;20206;-73
2021/12/31 00:16:50;;;;;;;17.33;7.17;;;7.90;99.90;;;;;;5071030;28;20206;-73
2021/12/31 00:19:18;;;;;;;12.30;7.43;;;7.70;99.90;;;;;;5071068;28;20661;-72
2021/12/31 00:21:48;;;;;;;16.00;7.53;;;7.40;99.90;;;;;;5071311;28;20198;-72
2021/12/31 00:24:15;;;;;;;11.07;6.43;;;7.30;99.90;;;;;;5071332;28;20305;-72
2021/12/31 00:26:42;;;;;;;21.77;7.80;;;7.50;99.90;;;;;;5071048;28;20248;-72
2021/12/31 00:29:09;;;;;;;10.77;5.63;;;7.60;99.90;;;;;;5071161;28;20202;-72
2021/12/31 00:31:36;;;;;;;11.70;5.80;;;7.60;99.90;;;;;;5070790;28;20676;-72
2021/12/31 00:34:03;;;;;;;14.20;6.30;;;7.70;99.90;;;;;;5070855;28;20731;-72
2021/12/31 00:36:40;;;;;;;10.50;6.03;;;7.80;99.90;;;;;;5070539;28;20743;-72
2021/12/31 00:39:07;;;;;;;10.80;7.10;;;7.90;99.90;;;;;;5070792;28;20205;-72
2021/12/31 00:41:34;;;;;;;15.87;7.10;;;8.00;99.90;;;;;;5070261;28;20209;-72
2021/12/31 00:44:01;;;;;;;10.53;6.70;;;8.00;99.90;;;;;;5070420;28;20674;-72
2021/12/31 00:46:30;;;;;;;13.03;6.63;;;8.00;99.90;;;;;;5070597;28;20252;-72
2021/12/31 00:48:57;;;;;;;8.00;6.13;;;8.10;99.90;;;;;;5070644;28;20234;-72
2021/12/31 00:51:24;;;;;;;11.27;7.13;;;8.10;99.90;;;;;;5070330;28;20568;-72
2021/12/31 00:53:53;;;;;;;9.17;7.30;;;8.10;99.90;;;;;;5070531;28;20248;-72
2021/12/31 00:56:20;;;;;;;11.70;7.20;;;8.20;99.90;;;;;;5070238;28;20627;-73
2021/12/31 00:58:47;;;;;;;14.53;7.13;;;8.20;99.90;;;;;;5070725;28;20660;-73
2021/12/31 01:01:18;;;;;;;9.13;6.90;;;8.20;99.90;;;;;;5070934;28;20267;-72
2021/12/31 01:03:45;;;;;;;16.20;6.27;;;8.20;99.90;;;;;;5071017;28;20202;-73
2021/12/31 01:06:12;;;;;;;27.97;8.80;;;8.00;99.90;;;;;;5071099;28;20198;-74
2021/12/31 01:08:40;;;;;;;12.53;7.10;;;7.70;1.00;;;;;;5070359;28;20291;-74
2021/12/31 01:11:08;;;;;;;17.90;7.57;;;7.50;1.00;;;;;;5070466;28;20202;-72
2021/12/31 01:13:48;;;;;;;13.97;6.33;;;7.70;1.00;;;;;;5070198;28;20263;-72
2021/12/31 01:16:15;;;;;;;14.73;7.07;;;7.70;1.00;;;;;;5072342;28;20297;-72
2021/12/31 01:21:26;;;;;;;12.23;6.40;;;7.80;1.00;;;;;;5068022;28;20205;-73
2021/12/31 01:23:53;;;;;;;39.23;9.07;;;7.90;1.00;;;;;;5089226;28;20231;-72
2021/12/31 01:26:21;;;;;;;26.70;8.63;;;7.70;1.00;;;;;;5090242;28;20208;-72
2021/12/31 01:28:48;;;;;;;11.37;6.40;;;7.60;1.00;;;;;;5090562;28;20290;-73
2021/12/31 01:31:15;;;;;;;10.00;6.43;;;7.80;1.00;;;;;;5090744;28;20749;-72
2021/12/31 01:33:42;;;;;;;20.73;7.17;;;7.70;1.00;;;;;;5090871;28;20202;-72
2021/12/31 01:36:09;;;;;;;19.50;7.20;;;7.70;1.00;;;;;;5089056;28;20201;-72
2021/12/31 01:38:36;;;;;;;17.90;7.20;;;7.60;1.00;;;;;;5088716;28;20247;-73
2021/12/31 01:41:03;;;;;;;10.03;6.40;;;7.80;1.00;;;;;;5089673;28;20213;-73
2021/12/31 01:43:32;;;;;;;33.37;8.43;;;7.80;1.00;;;;;;5089379;28;20840;-71
2021/12/31 01:46:01;;;;;;;11.60;6.50;;;7.60;1.00;;;;;;5090591;28;20289;-71
2021/12/31 01:48:34;;;;;;;32.70;9.07;;;7.70;1.00;;;;;;5090046;28;20332;-72
2021/12/31 01:51:02;;;;;;;12.47;5.33;;;7.50;99.90;;;;;;5090767;28;20253;-73
2021/12/31 01:53:29;;;;;;;17.17;5.90;;;7.60;99.90;;;;;;5093217;28;20579;-72
2021/12/31 01:55:58;;;;;;;7.53;4.67;;;7.70;7.80;;;;;;5094413;28;20209;-75
2021/12/31 01:58:26;;;;;;;11.00;6.03;;;7.80;1.00;;;;;;5093612;28;20202;-74
2021/12/31 02:00:55;;;;;;;8.50;4.70;;;7.90;1.00;;;;;;5094069;28;20201;-75
2021/12/31 02:03:24;;;;;;;20.50;5.80;;;7.80;99.90;;;;;;5093607;28;20255;-74
2021/12/31 02:05:51;;;;;;;60.33;9.77;;;7.20;1.00;;;;;;5093756;28;20205;-73
2021/12/31 02:08:18;;;;;;;22.67;5.30;;;7.00;99.90;;;;;;5093164;28;20237;-73
2021/12/31 02:10:45;;;;;;;57.83;7.30;;;7.20;99.90;;;;;;5094008;28;20680;-71
2021/12/31 02:13:15;;;;;;;20.73;5.67;;;7.00;99.90;;;;;;5094182;28;20612;-73
2021/12/31 02:15:42;;;;;;;20.80;5.67;;;7.10;84.80;;;;;;5093730;28;20251;-72
2021/12/31 02:18:10;;;;;;;33.03;6.63;;;6.90;71.00;;;;;;5093584;28;20197;-71
2021/12/31 02:20:43;;;;;;;20.30;5.73;;;6.80;1.00;;;;;;5093026;28;20677;-75
2021/12/31 02:23:14;;;;;;;17.50;4.70;;;6.80;1.00;;;;;;5093244;28;20212;-71
2021/12/31 02:25:42;;;;;;;12.00;5.00;;;6.80;1.00;;;;;;5093643;28;20206;-74
2021/12/31 02:28:09;;;;;;;21.17;5.20;;;6.90;88.70;;;;;;5088265;28;20653;-73
2021/12/31 02:30:36;;;;;;;18.67;6.07;;;7.00;99.90;;;;;;5089983;28;20642;-74
2021/12/31 02:33:04;;;;;;;20.57;5.53;;;6.80;1.00;;;;;;5078579;28;20264;-73
2021/12/31 02:35:31;;;;;;;17.87;5.57;;;6.70;1.00;;;;;;5072890;28;20210;-74
2021/12/31 02:38:00;;;;;;;18.37;6.50;;;6.70;1.00;;;;;;5073002;28;20206;-74
2021/12/31 02:40:28;;;;;;;14.83;4.40;;;6.70;1.00;;;;;;5072677;28;20214;-73
2021/12/31 02:42:56;;;;;;;13.10;4.30;;;7.00;1.00;;;;;;5076301;28;20681;-74
2021/12/31 02:45:29;;;;;;;12.27;5.30;;;7.20;39.10;;;;;;5092669;28;20600;-73
2021/12/31 02:47:57;;;;;;;9.77;3.90;;;7.30;67.00;;;;;;5092966;28;20233;-73
2021/12/31 02:50:33;;;;;;;13.33;5.10;;;7.40;1.00;;;;;;5092489;28;20212;-71
2021/12/31 02:53:03;;;;;;;10.87;4.57;;;7.30;1.00;;;;;;5092652;28;20240;-72
2021/12/31 02:55:31;;;;;;;10.43;4.23;;;7.30;99.90;;;;;;5092692;28;20690;-72
2021/12/31 02:57:59;;;;;;;13.10;4.80;;;7.40;22.50;;;;;;5092886;28;20215;-73
2021/12/31 03:00:27;;;;;;;6.93;4.57;;;7.50;1.00;;;;;;5092417;28;20749;-71
2021/12/31 03:02:55;;;;;;;10.73;4.27;;;7.40;6.30;;;;;;5093107;28;20588;-73
2021/12/31 03:05:23;;;;;;;8.60;3.73;;;7.30;99.90;;;;;;5091967;28;20251;-70
2021/12/31 03:07:51;;;;;;;8.53;3.90;;;7.30;1.00;;;;;;5092544;28;20225;-73
2021/12/31 03:10:21;;;;;;;7.17;4.00;;;7.30;99.90;;;;;;5092324;28;20262;-72
2021/12/31 03:12:50;;;;;;;7.03;3.50;;;7.40;1.00;;;;;;5092675;28;20652;-74
2021/12/31 03:15:17;;;;;;;5.10;3.27;;;7.30;1.00;;;;;;5092694;28;20210;-70
2021/12/31 03:17:45;;;;;;;5.93;4.07;;;7.30;1.00;;;;;;5091962;28;20201;-73
2021/12/31 03:20:16;;;;;;;7.77;3.53;;;7.30;99.90;;;;;;5072021;28;20209;-73
2021/12/31 03:22:44;;;;;;;7.53;4.00;;;7.20;99.90;;;;;;5081280;28;20197;-72
2021/12/31 03:25:12;;;;;;;8.37;4.57;;;7.10;99.90;;;;;;5083105;28;20205;-72
2021/12/31 03:27:40;;;;;;;6.80;3.40;;;7.00;91.40;;;;;;5079315;28;20671;-71
2021/12/31 03:30:10;;;;;;;5.23;3.63;;;6.80;45.90;;;;;;5079298;28;20210;-72
2021/12/31 03:32:37;;;;;;;5.50;3.67;;;6.70;99.90;;;;;;5083099;28;20604;-73
2021/12/31 03:35:04;;;;;;;7.50;3.30;;;6.70;99.90;;;;;;5091334;28;20205;-75
2021/12/31 03:37:31;;;;;;;8.13;3.83;;;6.50;99.90;;;;;;5071485;28;20259;-73
2021/12/31 03:39:58;;;;;;;3.67;3.27;;;6.30;99.90;;;;;;5071979;28;20267;-72
2021/12/31 03:42:25;;;;;;;4.63;3.67;;;6.40;1.00;;;;;;5071563;28;20256;-73
2021/12/31 03:44:54;;;;;;;5.13;3.80;;;6.30;1.00;;;;;;5071664;28;20214;-73
2021/12/31 03:47:21;;;;;;;3.93;3.23;;;6.30;1.00;;;;;;5071352;28;20198;-74
2021/12/31 03:49:48;;;;;;;4.30;3.43;;;6.30;1.00;;;;;;5071380;28;20291;-74
2021/12/31 03:52:15;;;;;;;4.33;3.10;;;6.40;1.00;;;;;;5071712;28;20680;-72
2021/12/31 03:54:42;;;;;;;3.67;3.37;;;5.50;1.00;;;;;;5071375;28;20232;-72
2021/12/31 03:57:09;;;;;;;2.73;2.23;;;6.40;99.90;;;;;;5071423;28;20661;-71
2021/12/31 03:59:36;;;;;;;3.10;2.77;;;6.40;99.90;;;;;;5071042;28;20263;-72
2021/12/31 04:02:04;;;;;;;2.97;2.67;;;6.40;99.90;;;;;;5071409;28;20261;-72
2021/12/31 04:04:31;;;;;;;3.03;2.73;;;6.30;99.90;;;;;;5070682;28;20248;-71
2021/12/31 04:06:58;;;;;;;3.93;3.50;;;6.20;99.90;;;;;;5071453;28;20206;-71
2021/12/31 04:09:25;;;;;;;5.97;3.83;;;6.30;99.90;;;;;;5070894;28;20720;-70
2021/12/31 04:11:52;;;;;;;5.50;4.50;;;6.20;94.80;;;;;;5071281;28;20206;-71
2021/12/31 04:14:19;;;;;;;4.63;3.67;;;6.30;99.90;;;;;;5070535;28;20252;-71
2021/12/31 04:16:46;;;;;;;8.17;4.83;;;6.30;99.90;;;;;;5070981;28;20202;-72
2021/12/31 04:19:15;;;;;;;9.87;4.60;;;6.20;72.50;;;;;;5071109;28;20252;-73
2021/12/31 04:21:43;;;;;;;5.63;4.47;;;6.20;69.10;;;;;;5071288;28;20271;-73
2021/12/31 04:24:16;;;;;;;5.97;3.97;;;6.20;89.10;;;;;;5071379;28;20284;-72
2021/12/31 04:26:43;;;;;;;6.27;3.53;;;6.30;99.90;;;;;;5071369;28;20206;-71
2021/12/31 04:29:10;;;;;;;6.40;4.37;;;6.30;65.70;;;;;;5070807;28;20229;-72
2021/12/31 04:31:37;;;;;;;5.23;4.43;;;6.30;1.00;;;;;;5070623;28;20263;-72
2021/12/31 04:34:06;;;;;;;5.70;3.93;;;6.30;10.90;;;;;;5070696;28;20202;-73
2021/12/31 04:36:35;;;;;;;4.83;4.33;;;6.20;1.00;;;;;;5070621;28;20248;-74
2021/12/31 04:39:02;;;;;;;5.87;3.73;;;6.20;1.00;;;;;;5070910;28;20575;-73
2021/12/31 04:41:28;;;;;;;9.37;4.27;;;6.20;1.00;;;;;;5070423;28;20255;-73
2021/12/31 04:43:55;;;;;;;5.43;4.83;;;6.30;1.00;;;;;;5070834;28;20218;-73
2021/12/31 04:46:22;;;;;;;4.03;3.63;;;6.30;4.40;;;;;;5070466;28;20635;-74
2021/12/31 04:48:49;;;;;;;4.87;3.80;;;6.30;26.20;;;;;;5070749;28;20234;-72
2021/12/31 04:51:16;;;;;;;4.40;3.57;;;6.30;6.10;;;;;;5071039;28;20252;-72
2021/12/31 04:53:45;;;;;;;4.93;3.73;;;6.20;39.30;;;;;;5071017;28;20263;-72
2021/12/31 04:56:12;;;;;;;4.57;4.03;;;6.30;50.70;;;;;;5071117;28;20271;-73
2021/12/31 04:58:39;;;;;;;5.60;3.90;;;6.10;39.90;;;;;;5070447;28;20568;-73
2021/12/31 05:01:06;;;;;;;6.20;4.40;;;6.20;99.90;;;;;;5071299;28;21127;-71
2021/12/31 05:03:32;;;;;;;4.83;3.70;;;6.20;82.40;;;;;;5070355;28;20201;-71
2021/12/31 05:05:59;;;;;;;3.63;3.33;;;6.10;20.60;;;;;;5070692;28;20626;-72
2021/12/31 05:08:26;;;;;;;4.90;4.50;;;6.20;2.50;;;;;;5070356;28;20692;-73
2021/12/31 05:10:55;;;;;;;5.10;3.70;;;6.20;1.00;;;;;;5070645;28;20202;-73
2021/12/31 05:13:22;;;;;;;4.20;3.70;;;6.20;1.00;;;;;;5070153;28;20256;-72
2021/12/31 05:15:51;;;;;;;7.03;3.97;;;6.20;1.00;;;;;;5070610;28;20206;-71
2021/12/31 05:18:18;;;;;;;4.67;4.27;;;6.20;1.00;;;;;;5070215;28;20301;-71
2021/12/31 05:20:45;;;;;;;5.27;4.30;;;6.10;1.00;;;;;;5070795;28;20289;-71
2021/12/31 05:23:12;;;;;;;3.83;3.30;;;6.10;1.00;;;;;;5070757;28;20207;-72
2021/12/31 05:25:39;;;;;;;6.13;4.60;;;6.10;1.00;;;;;;5070155;28;20206;-71
2021/12/31 05:28:07;;;;;;;4.83;3.97;;;6.10;1.00;;;;;;5074127;28;20209;-72
2021/12/31 05:30:34;;;;;;;5.50;4.17;;;5.90;1.00;;;;;;5073657;28;20971;-71
2021/12/31 05:33:01;;;;;;;5.47;4.17;;;6.00;1.00;;;;;;5074198;28;20550;-73
2021/12/31 05:35:29;;;;;;;5.60;3.93;;;6.00;1.00;;;;;;5073883;28;20210;-73
2021/12/31 05:37:56;;;;;;;4.37;3.63;;;6.00;1.00;;;;;;5074225;28;20206;-74
2021/12/31 05:40:23;;;;;;;5.43;4.17;;;6.00;1.00;;;;;;5073589;28;20245;-74
2021/12/31 05:42:50;;;;;;;4.77;4.23;;;6.00;1.00;;;;;;5074051;28;20726;-73
2021/12/31 05:45:19;;;;;;;4.17;3.77;;;5.90;1.00;;;;;;5073598;28;20210;-71
2021/12/31 05:47:47;;;;;;;5.27;4.03;;;5.90;1.00;;;;;;5074081;28;20202;-73
2021/12/31 05:50:27;;;;;;;8.53;3.37;;;5.90;1.00;;;;;;5074164;28;20237;-73
2021/12/31 05:52:54;;;;;;;5.83;4.03;;;5.90;1.00;;;;;;5088645;28;20212;-72
2021/12/31 05:55:22;;;;;;;5.20;4.57;;;5.80;1.00;;;;;;5092604;28;20231;-73
2021/12/31 05:57:49;;;;;;;7.43;4.63;;;5.90;1.00;;;;;;5082882;28;20267;-73
2021/12/31 06:00:17;;;;;;;5.40;4.57;;;5.90;1.00;;;;;;5092627;28;20205;-72
2021/12/31 06:02:45;;;;;;;6.83;4.57;;;7.00;1.00;;;;;;5081495;28;20263;-73
2021/12/31 06:05:12;;;;;;;5.30;4.80;;;5.80;1.00;;;;;;5092578;28;20202;-72
2021/12/31 06:07:39;;;;;;;5.97;4.70;;;5.80;1.00;;;;;;5085524;28;20197;-75
2021/12/31 06:10:07;;;;;;;4.37;3.97;;;5.80;1.00;;;;;;5080754;28;20233;-72
2021/12/31 06:12:35;;;;;;;5.17;4.67;;;5.80;1.00;;;;;;5092688;28;20688;-78
2021/12/31 06:15:04;;;;;;;4.83;4.13;;;5.90;1.00;;;;;;5080388;28;20206;-77
2021/12/31 06:17:32;;;;;;;5.73;4.00;;;5.80;1.00;;;;;;5089523;28;20209;-74
2021/12/31 06:20:01;;;;;;;4.40;3.70;;;5.80;1.00;;;;;;5073218;28;20229;-74
2021/12/31 06:22:29;;;;;;;5.87;3.67;;;5.70;1.00;;;;;;5072905;28;20206;-72
2021/12/31 06:24:56;;;;;;;6.27;4.70;;;5.70;1.00;;;;;;5073453;28;20198;-72
2021/12/31 06:27:23;;;;;;;6.13;4.40;;;5.60;1.00;;;;;;5081444;28;20251;-71
2021/12/31 06:29:50;;;;;;;5.47;3.80;;;5.60;1.00;;;;;;5081887;28;20226;-71
2021/12/31 06:32:17;;;;;;;4.60;3.70;;;5.70;1.00;;;;;;5088472;28;20737;-70
2021/12/31 06:34:44;;;;;;;5.33;4.47;;;5.70;1.00;;;;;;5088316;28;20209;-72
2021/12/31 06:37:12;;;;;;;7.53;4.37;;;5.70;1.00;;;;;;5087701;28;20214;-70
2021/12/31 06:39:41;;;;;;;5.27;4.77;;;5.60;1.00;;;;;;5072566;28;20210;-72
2021/12/31 06:42:09;;;;;;;7.03;4.47;;;5.60;1.00;;;;;;5072983;28;20206;-72
2021/12/31 06:44:36;;;;;;;6.13;4.37;;;5.50;1.00;;;;;;5072320;28;20271;-71
2021/12/31 06:47:04;;;;;;;6.67;5.23;;;5.50;1.00;;;;;;5072747;28;20206;-72
2021/12/31 06:49:31;;;;;;;4.93;4.00;;;5.60;1.00;;;;;;5072398;28;20241;-68
2021/12/31 06:51:58;;;;;;;6.57;4.73;;;5.60;1.00;;;;;;5072929;28;20210;-71
2021/12/31 06:54:26;;;;;;;6.70;4.83;;;5.60;1.00;;;;;;5072643;28;20263;-71
2021/12/31 06:56:53;;;;;;;4.10;3.73;;;5.50;1.00;;;;;;5092321;28;20209;-70
2021/12/31 06:59:20;;;;;;;5.53;3.97;;;5.50;1.00;;;;;;5083840;28;20299;-72
2021/12/31 07:01:47;;;;;;;5.63;4.87;;;5.50;1.00;;;;;;5072649;28;20202;-72
2021/12/31 07:04:14;;;;;;;6.27;4.43;;;5.60;1.00;;;;;;5072722;28;20252;-70
2021/12/31 07:06:41;;;;;;;6.67;4.87;;;5.60;1.00;;;;;;5084672;28;20213;-71
2021/12/31 07:09:08;;;;;;;5.80;4.47;;;5.60;1.00;;;;;;5085390;28;20274;-69
2021/12/31 07:11:36;;;;;;;7.17;4.43;;;5.60;1.00;;;;;;5072038;28;20198;-72
2021/12/31 07:14:03;;;;;;;7.37;5.50;;;5.70;1.00;;;;;;5072080;28;20665;-69
2021/12/31 07:16:30;;;;;;;6.43;5.10;;;5.70;1.00;;;;;;5072099;28;20202;-71
2021/12/31 07:18:57;;;;;;;8.90;4.87;;;5.70;1.00;;;;;;5086614;28;20215;-72
2021/12/31 07:21:24;;;;;;;4.63;4.17;;;5.50;1.00;;;;;;5076550;28;20331;-79
2021/12/31 07:23:51;;;;;;;5.20;4.33;;;5.50;1.00;;;;;;5082243;28;20623;-72
2021/12/31 07:26:18;;;;;;;6.23;4.30;;;5.50;1.00;;;;;;5079206;28;20712;-70
2021/12/31 07:28:46;;;;;;;6.37;4.87;;;5.60;1.00;;;;;;5079734;28;20206;-70
2021/12/31 07:31:14;;;;;;;5.90;5.17;;;5.50;1.00;;;;;;5089938;28;20263;-70
2021/12/31 07:33:41;;;;;;;9.37;6.07;;;5.50;1.00;;;;;;5087354;28;20288;-69
2021/12/31 07:36:09;;;;;;;7.87;4.63;;;5.40;1.00;;;;;;5078355;28;20220;-72
2021/12/31 07:38:39;;;;;;;5.97;4.43;;;5.50;1.00;;;;;;5077971;28;20210;-68
2021/12/31 07:41:07;;;;;;;9.17;7.00;;;5.70;1.00;;;;;;5085157;28;20669;-70
2021/12/31 07:43:34;;;;;;;19.27;7.10;;;5.60;1.00;;;;;;5078994;28;20258;-69
2021/12/31 07:46:03;;;;;;;7.00;6.20;;;5.50;1.00;;;;;;5081382;28;20739;-71
2021/12/31 07:48:30;;;;;;;8.00;5.53;;;5.60;1.00;;;;;;5069511;28;20210;-72
2021/12/31 07:50:57;;;;;;;8.60;7.80;;;5.80;1.00;;;;;;5069832;28;20234;-70
2021/12/31 07:53:24;;;;;;;7.27;6.50;;;6.00;1.00;;;;;;5071023;28;20202;-73
2021/12/31 07:55:51;;;;;;;7.33;5.07;;;6.00;1.00;;;;;;5070776;28;20733;-71
2021/12/31 07:58:18;;;;;;;7.90;5.57;;;5.90;1.00;;;;;;5070815;28;20205;-69
2021/12/31 08:00:45;;;;;;;7.57;5.47;;;6.00;1.00;;;;;;5071809;28;20206;-72
2021/12/31 08:03:15;;;;;;;8.87;6.37;;;6.10;1.00;;;;;;5071566;28;20202;-72
2021/12/31 08:05:42;;;;;;;4.90;4.23;;;6.30;1.00;;;;;;5070757;28;20206;-71
2021/12/31 08:08:09;;;;;;;7.23;4.70;;;6.20;1.00;;;;;;5070895;28;20206;-69
2021/12/31 08:10:38;;;;;;;6.27;4.80;;;6.30;1.00;;;;;;5070445;28;20275;-72
2021/12/31 08:13:05;;;;;;;5.77;4.93;;;6.30;1.00;;;;;;5071224;28;20541;-71
2021/12/31 08:15:32;;;;;;;7.47;5.50;;;6.30;1.00;;;;;;5070874;28;20202;-73
2021/12/31 08:17:59;;;;;;;6.07;5.40;;;6.40;1.00;;;;;;5071189;28;20739;-70
2021/12/31 08:20:27;;;;;;;8.07;4.50;;;6.40;1.00;;;;;;5070656;28;20202;-72
2021/12/31 08:22:55;;;;;;;6.03;4.47;;;6.50;1.00;;;;;;5071052;28;20206;-72
2021/12/31 08:25:23;;;;;;;14.53;9.80;;;6.80;1.00;;;;;;5070649;28;20852;-70
2021/12/31 08:27:50;;;;;;;6.43;5.63;;;7.00;1.00;;;;;;5071103;28;20205;-72
2021/12/31 08:30:17;;;;;;;6.53;5.57;;;7.00;1.00;;;;;;5070635;28;20291;-68
2021/12/31 08:32:44;;;;;;;6.30;5.33;;;7.10;1.00;;;;;;5071408;28;20201;-69
2021/12/31 08:35:11;;;;;;;6.20;5.60;;;8.40;1.00;;;;;;5071156;28;20628;-69
2021/12/31 08:37:39;;;;;;;10.17;4.87;;;9.40;1.00;;;;;;5070484;28;20259;-71
2021/12/31 08:40:08;;;;;;;4.83;4.30;;;8.60;1.00;;;;;;5070888;28;20198;-71
2021/12/31 08:42:36;;;;;;;6.23;5.57;;;9.20;1.00;;;;;;5070655;28;20665;-73
2021/12/31 08:45:03;;;;;;;5.77;5.17;;;9.60;1.00;;;;;;5070583;28;20267;-69
2021/12/31 08:47:30;;;;;;;9.87;8.97;;;9.80;1.00;;;;;;5070265;28;20727;-69
2021/12/31 08:49:57;;;;;;;9.03;4.27;;;10.20;1.00;;;;;;5070738;28;20632;-72
2021/12/31 08:52:24;;;;;;;4.70;4.30;;;10.70;1.00;;;;;;5070345;28;20260;-72
2021/12/31 08:54:53;;;;;;;5.90;5.30;;;10.40;1.00;;;;;;5070681;28;20202;-69
2021/12/31 08:57:20;;;;;;;8.23;4.97;;;9.90;1.00;;;;;;5070568;28;20615;-69
2021/12/31 08:59:46;;;;;;;6.33;4.93;;;10.10;1.00;;;;;;5070931;28;20209;-72
2021/12/31 09:02:14;;;;;;;6.90;4.17;;;9.40;1.00;;;;;;5075121;28;20617;-69
2021/12/31 09:04:41;;;;;;;4.83;3.60;;;9.00;1.00;;;;;;5074446;28;20208;-73
2021/12/31 09:07:08;;;;;;;6.17;3.53;;;9.30;1.00;;;;;;5075021;28;20202;-70
2021/12/31 09:09:35;;;;;;;5.50;4.30;;;10.60;1.00;;;;;;5074226;28;20233;-72
2021/12/31 09:12:03;;;;;;;10.50;4.47;;;12.20;1.00;;;;;;5074633;28;20577;-73
2021/12/31 09:14:30;;;;;;;5.30;3.40;;;11.90;1.00;;;;;;5073928;28;20623;-69
2021/12/31 09:16:58;;;;;;;4.40;4.00;;;11.80;1.00;;;;;;5073897;28;20739;-69
2021/12/31 09:19:25;;;;;;;4.60;3.80;;;12.30;1.00;;;;;;5073841;28;20293;-72
2021/12/31 09:21:55;;;;;;;5.40;4.30;;;12.60;1.00;;;;;;5074284;28;20206;-70
2021/12/31 09:24:22;;;;;;;6.80;4.40;;;12.80;1.00;;;;;;5073668;28;20233;-69
2021/12/31 09:26:49;;;;;;;5.50;4.97;;;12.90;1.00;;;;;;5074406;28;20206;-73
2021/12/31 09:29:20;;;;;;;5.88;4.68;;;13.50;1.00;;;;;;5073946;28;20206;-70
2021/12/31 09:31:47;;;;;;;6.20;3.20;;;13.60;1.00;;;;;;5074378;28;20205;-70
2021/12/31 09:34:14;;;;;;;6.32;4.10;;;14.30;1.00;;;;;;5074402;28;20666;-69
2021/12/31 09:36:41;;;;;;;4.78;3.80;;;15.40;1.00;;;;;;5074053;28;20610;-69
2021/12/31 09:39:08;;;;;;;4.47;3.88;;;16.10;1.00;;;;;;5073778;28;20556;-70
2021/12/31 09:41:35;;;;;;;5.82;5.22;;;17.50;1.00;;;;;;5073429;28;20210;-73
2021/12/31 09:44:02;;;;;;;4.35;3.97;;;17.70;1.00;;;;;;5074067;28;20213;-71
2021/12/31 09:46:31;;;;;;;5.43;4.28;;;17.80;1.00;;;;;;5073561;28;20255;-69
2021/12/31 09:48:57;;;;;;;4.65;4.15;;;17.80;1.00;;;;;;5073880;28;20231;-70
2021/12/31 09:51:25;;;;;;;5.30;4.80;;;18.40;1.00;;;;;;5073120;28;20234;-70
2021/12/31 09:53:53;;;;;;;6.82;4.47;;;19.40;1.00;;;;;;5073644;28;20666;-71
2021/12/31 09:56:20;;;;;;;4.93;4.45;;;18.40;1.00;;;;;;5073403;28;20232;-71
2021/12/31 09:58:47;;;;;;;4.63;4.13;;;19.10;1.00;;;;;;5073562;28;20297;-72
2021/12/31 10:01:14;;;;;;;4.53;3.60;;;19.80;1.00;;;;;;5074283;28;20261;-71
2021/12/31 10:03:55;;;;;;;8.27;5.07;;;20.10;1.00;;;;;;5073419;28;20205;-70
2021/12/31 10:06:22;;;;;;;5.72;5.13;;;20.30;1.00;;;;;;5073046;28;20271;-70
2021/12/31 10:08:49;;;;;;;4.95;4.45;;;21.30;99.90;;;;;;5073588;28;20249;-70
2021/12/31 10:11:18;;;;;;;7.65;4.53;;;21.80;99.90;;;;;;5073194;28;20229;-70
2021/12/31 10:13:46;;;;;;;4.82;4.32;;;22.10;99.90;;;;;;5073346;28;20202;-74
2021/12/31 10:16:21;;;;;;;5.00;4.47;;;22.80;99.90;;;;;;5073550;28;20733;-70
2021/12/31 10:18:50;;;;;;;4.57;4.18;;;22.60;99.90;;;;;;5073455;28;20197;-70
2021/12/31 10:21:20;;;;;;;4.85;4.35;;;22.80;99.90;;;;;;5072928;28;20198;-70
2021/12/31 10:23:48;;;;;;;5.50;4.05;;;21.90;99.90;;;;;;5073137;28;20618;-71
2021/12/31 10:26:17;;;;;;;6.13;4.63;;;22.90;99.90;;;;;;5073563;28;20249;-70
2021/12/31 10:28:55;;;;;;;5.97;4.82;;;22.80;99.90;;;;;;5073272;28;20202;-72
2021/12/31 10:31:22;;;;;;;7.05;4.18;;;22.60;99.90;;;;;;5072549;28;20279;-73
2021/12/31 10:33:51;;;;;;;7.25;4.10;;;22.00;99.90;;;;;;5073086;28;20198;-70
2021/12/31 10:36:39;;;;;;;6.35;4.95;;;22.60;99.90;;;;;;5072380;28;20198;-74
2021/12/31 10:39:18;;;;;;;5.97;4.72;;;21.90;99.90;;;;;;5072943;28;20263;-70
2021/12/31 10:41:49;;;;;;;5.70;5.10;;;19.60;99.90;;;;;;5072904;28;20198;-69
2021/12/31 10:44:16;;;;;;;7.20;5.20;;;18.00;99.90;;;;;;5072792;28;20276;-70
2021/12/31 10:46:44;;;;;;;4.55;3.95;;;18.80;99.90;;;;;;5073160;28;20228;-70
2021/12/31 10:49:13;;;;;;;6.65;4.95;;;19.60;99.90;;;;;;5073034;28;20206;-73
2021/12/31 10:51:42;;;;;;;5.82;4.95;;;17.50;99.90;;;;;;5072745;28;20238;-74
2021/12/31 10:54:30;;;;;;;4.85;4.10;;;14.60;1.00;;;;;;5072767;28;20226;-70
2021/12/31 10:56:58;;;;;;;8.43;5.45;;;13.40;1.00;;;;;;5072605;28;20224;-70
2021/12/31 10:59:25;;;;;;;4.47;3.75;;;13.10;1.00;;;;;;5072091;28;20673;-69
2021/12/31 11:01:54;;;;;;;5.13;3.60;;;12.70;1.00;;;;;;5072648;28;20252;-75
2021/12/31 11:04:23;;;;;;;6.25;4.18;;;12.70;1.00;;;;;;5071952;28;20237;-70
2021/12/31 11:06:50;;;;;;;4.70;3.70;;;12.80;1.00;;;;;;5072494;28;20267;-69
2021/12/31 11:09:21;;;;;;;3.85;3.22;;;12.80;1.00;;;;;;5071953;28;20281;-72
2021/12/31 11:11:49;;;;;;;6.95;3.78;;;13.00;1.00;;;;;;5072234;28;20237;-69
2021/12/31 11:14:17;;;;;;;4.78;3.15;;;13.10;1.00;;;;;;5072145;28;20238;-72
2021/12/31 11:16:45;;;;;;;4.18;3.78;;;13.00;1.00;;;;;;5072439;28;20687;-75
2021/12/31 11:19:12;;;;;;;5.22;3.63;;;13.00;1.00;;;;;;5072200;28;20734;-68
2021/12/31 11:21:41;;;;;;;4.47;3.83;;;13.10;1.00;;;;;;5071788;28;20293;-70
2021/12/31 11:24:28;;;;;;;4.53;4.13;;;13.10;1.00;;;;;;5071095;28;20699;-73
2021/12/31 11:26:55;;;;;;;3.75;3.38;;;13.30;1.00;;;;;;5071890;28;20653;-73
2021/12/31 11:29:22;;;;;;;5.60;3.95;;;13.30;1.00;;;;;;5071408;28;20558;-69
2021/12/31 11:31:49;;;;;;;4.43;3.05;;;13.40;1.00;;;;;;5071976;28;20234;-69
2021/12/31 11:34:17;;;;;;;3.72;3.30;;;13.50;1.00;;;;;;5071807;28;20256;-72
2021/12/31 11:36:51;;;;;;;4.30;3.88;;;13.70;1.00;;;;;;5072170;28;20206;-70
2021/12/31 11:39:23;;;;;;;3.80;2.80;;;13.80;1.00;;;;;;5071414;28;20197;-69
2021/12/31 11:41:51;;;;;;;4.15;3.20;;;14.10;1.00;;;;;;5071817;28;20255;-69
2021/12/31 11:44:19;;;;;;;5.80;3.38;;;14.20;1.00;;;;;;5071224;28;20272;-72
2021/12/31 11:46:47;;;;;;;5.82;3.63;;;14.20;1.00;;;;;;5071639;28;20221;-69
2021/12/31 11:49:22;;;;;;;4.68;3.38;;;14.40;1.00;;;;;;5071640;28;20206;-69
2021/12/31 11:52:06;;;;;;;4.75;3.28;;;14.40;1.00;;;;;;5071416;28;20233;-70
2021/12/31 11:54:34;;;;;;;7.28;3.88;;;14.40;1.00;;;;;;5071074;28;20202;-71
2021/12/31 11:57:09;;;;;;;4.25;2.83;;;14.60;1.00;;;;;;5071393;28;20719;-70
2021/12/31 11:59:45;;;;;;;5.60;3.53;;;14.60;1.00;;;;;;5070843;28;20620;-69
2021/12/31 12:02:20;;;;;;;3.13;2.35;;;14.90;1.00;;;;;;5071358;28;20210;-69
2021/12/31 12:05:08;;;;;;;4.18;2.75;;;15.10;1.00;;;;;;5071246;28;20245;-73
2021/12/31 12:07:38;;;;;;;3.05;1.88;;;15.30;1.00;;;;;;5070785;28;20296;-69
2021/12/31 12:10:21;;;;;;;2.38;1.95;;;15.60;1.00;;;;;;5071125;28;20263;-73
2021/12/31 12:12:51;;;;;;;5.60;2.25;;;15.70;1.00;;;;;;5070544;28;20202;-70
2021/12/31 12:15:35;;;;;;;1.98;1.67;;;15.70;1.00;;;;;;5070843;28;20241;-69
2021/12/31 12:18:06;;;;;;;3.30;1.85;;;15.70;1.00;;;;;;5070886;28;20202;-73
2021/12/31 12:20:40;;;;;;;3.25;2.33;;;15.70;1.00;;;;;;5070609;28;20206;-73
2021/12/31 12:23:18;;;;;;;2.17;1.50;;;15.60;1.00;;;;;;5071192;28;20197;-70
2021/12/31 12:25:45;;;;;;;2.00;1.80;;;15.70;1.00;;;;;;5071034;28;20212;-71
2021/12/31 12:28:14;;;;;;;2.90;1.70;;;16.00;1.00;;;;;;5070956;28;20248;-72
2021/12/31 12:30:46;;;;;;;2.53;2.28;;;16.20;1.00;;;;;;5070804;28;20697;-69
2021/12/31 12:33:19;;;;;;;1.90;1.38;;;16.00;1.00;;;;;;5071214;28;20242;-69
2021/12/31 12:35:48;;;;;;;2.10;1.40;;;16.10;1.00;;;;;;5070434;28;20198;-70
2021/12/31 12:38:19;;;;;;;3.72;2.22;;;16.00;1.00;;;;;;5071160;28;20209;-70
2021/12/31 12:40:50;;;;;;;2.75;1.83;;;16.10;1.00;;;;;;5070620;28;20701;-70
2021/12/31 12:43:19;;;;;;;2.20;1.40;;;16.20;1.00;;;;;;5070428;28;20217;-69
2021/12/31 12:45:49;;;;;;;2.10;1.13;;;16.30;1.00;;;;;;5070694;28;20205;-73
2021/12/31 12:48:17;;;;;;;1.92;1.25;;;16.40;1.00;;;;;;5070544;28;20221;-72
2021/12/31 12:50:51;;;;;;;2.33;2.03;;;16.30;1.00;;;;;;5070966;28;20259;-70
2021/12/31 12:53:25;;;;;;;2.38;2.08;;;16.50;1.00;;;;;;5070359;28;20575;-70
2021/12/31 12:56:11;;;;;;;1.58;1.15;;;16.60;1.00;;;;;;5070796;28;20264;-70
2021/12/31 12:58:40;;;;;;;1.50;1.30;;;16.50;1.00;;;;;;5070334;28;20213;-73
2021/12/31 13:01:07;;;;;;;1.88;1.40;;;16.60;1.00;;;;;;5070565;28;20210;-69
2021/12/31 13:03:47;;;;;;;1.10;0.90;;;16.60;1.00;;;;;;5070121;28;20797;-69
2021/12/31 13:06:15;;;;;;;2.75;1.42;;;16.60;1.00;;;;;;5070850;28;20198;-71
2021/12/31 13:08:43;;;;;;;6.10;2.05;;;16.50;1.00;;;;;;5071056;28;20197;-69